Terminal Aerodrome Forecast
Issued by NWS Grand Forks, ND

Home | Current Version | Previous Version | Graphics & Text | Print | Product List | Glossary On
Versions: 1 2 3 4 5 6 7 8 9 10 11 12 13
761
FTUS43 KFGF 191130
TAFGFK
TAF
KGFK 191130Z 1912/2012 18008KT P6SM SCT250
     FM191600 18014KT P6SM FEW250
     FM200100 18008KT P6SM SKC=

USA.gov is the U.S. government's official web portal to all federal, state and local government web resources and services.